Time;durP1;ratioP1;P1;durP2;ratioP2;P2;SDS_P1;SDS_P2;PMS_P1;PMS_P2;Temp;Humidity;BMP_temperature;BMP_pressure;BME280_temperature;BME280_humidity;BME280_pressure;Samples;Min_cycle;Max_cycle;Signal;HPM_P1;HPM_P2
2023/08/25 03:01:59;;;;;;;1.67;1.58;;;;;;;;;;6218981;22;20163;-95
2023/08/25 03:04:48;;;;;;;3.35;1.70;;;;;;;;;;6281241;22;20195;-96
2023/08/25 03:10:25;;;;;;;2.20;1.77;;;;;;;;;;6282648;22;20148;-96
2023/08/25 03:15:55;;;;;;;2.00;1.80;;;;;;;;;;6252285;23;20157;-96
2023/08/25 03:27:04;;;;;;;1.98;1.88;;;;;;;;;;6275777;23;20161;-95
2023/08/25 03:32:31;;;;;;;1.77;1.67;;;;;;;;;;6272352;22;20169;-96
2023/08/25 03:35:13;;;;;;;2.85;2.58;;;;;;;;;;6274979;23;20216;-96
2023/08/25 03:37:52;;;;;;;3.35;2.00;;;;;;;;;;6226754;23;20200;-96
2023/08/25 03:40:31;;;;;;;3.05;2.20;;;;;;;;;;6275585;23;20156;-96
2023/08/25 03:43:05;;;;;;;2.33;2.10;;;;;;;;;;6273281;22;20168;-96
2023/08/25 03:52:13;;;;;;;3.63;2.40;;;;;;;;;;6269279;22;20152;-96
2023/08/25 03:54:45;;;;;;;2.08;1.98;;;;;;;;;;6275650;23;20205;-96
2023/08/25 03:57:26;;;;;;;3.05;2.05;;;;;;;;;;6202487;23;20177;-96
2023/08/25 04:00:10;;;;;;;1.55;1.45;;;;;;;;;;6273369;23;20161;-96
2023/08/25 04:02:55;;;;;;;2.13;1.80;;;;;;;;;;6274836;22;20221;-96
2023/08/25 04:11:14;;;;;;;2.85;2.55;;;;;;;;;;6271531;22;20184;-96
2023/08/25 04:14:01;;;;;;;4.45;2.75;;;;;;;;;;6275434;23;20152;-96
2023/08/25 04:22:19;;;;;;;1.80;1.70;;;;;;;;;;6273475;22;20152;-96
2023/08/25 04:25:48;;;;;;;2.70;2.50;;;;;;;;;;6275218;23;20148;-96
2023/08/25 04:28:42;;;;;;;2.78;2.55;;;;;;;;;;6275714;23;20149;-96
2023/08/25 04:31:18;;;;;;;2.22;2.13;;;;;;;;;;6275121;22;20483;-96
2023/08/25 04:33:59;;;;;;;2.47;2.28;;;;;;;;;;6274528;23;20149;-96
2023/08/25 04:36:40;;;;;;;3.40;2.60;;;;;;;;;;6274841;23;20153;-96
2023/08/25 04:42:26;;;;;;;2.65;2.45;;;;;;;;;;6271429;22;20184;-96
2023/08/25 04:45:53;;;;;;;2.90;2.70;;;;;;;;;;6276925;23;20234;-96
2023/08/25 04:57:55;;;;;;;3.00;2.80;;;;;;;;;;6204188;23;20142;-96
2023/08/25 05:06:59;;;;;;;2.90;2.70;;;;;;;;;;6273858;23;20173;-96
2023/08/25 13:53:27;;;;;;;3.95;3.65;;;;;;;;;;6169366;22;21186;-94
2023/08/25 13:56:02;;;;;;;3.25;2.92;;;;;;;;;;6241142;23;20221;-96
2023/08/25 14:13:26;;;;;;;1.98;1.88;;;;;;;;;;6277010;22;20164;-94
2023/08/25 14:15:58;;;;;;;1.70;1.60;;;;;;;;;;6307231;22;20159;-94
2023/08/25 14:18:26;;;;;;;2.25;1.50;;;;;;;;;;6306468;22;20228;-94
2023/08/25 14:20:54;;;;;;;1.80;1.50;;;;;;;;;;6306685;22;20144;-93
2023/08/25 14:23:30;;;;;;;2.22;1.90;;;;;;;;;;6306593;22;20155;-96
2023/08/25 14:26:05;;;;;;;1.65;1.55;;;;;;;;;;6306929;22;20148;-94
2023/08/25 14:29:22;;;;;;;;;;;;;;;;;;;;;
2023/08/25 14:32:28;;;;;;;;;;;;;;;;;;;;;
2023/08/25 14:35:35;;;;;;;1.40;1.30;;;;;;;;;;6307140;22;20208;-95
2023/08/25 14:38:55;;;;;;;1.85;1.50;;;;;;;;;;6306765;22;20160;-95
2023/08/25 14:41:25;;;;;;;1.30;1.20;;;;;;;;;;6291038;22;20155;-94
2023/08/25 14:44:26;;;;;;;;;;;;;;;;;;;;;
2023/08/25 14:46:55;;;;;;;0.95;0.95;;;;;;;;;;6307035;22;20197;-94
2023/08/25 14:49:26;;;;;;;1.20;1.20;;;;;;;;;;6307098;22;20141;-94
2023/08/25 14:51:56;;;;;;;1.38;1.33;;;;;;;;;;6306479;22;20144;-94
2023/08/25 14:54:24;;;;;;;1.10;1.10;;;;;;;;;;6306483;22;20145;-95
2023/08/25 14:56:52;;;;;;;1.40;1.30;;;;;;;;;;6306782;22;20145;-94
2023/08/25 15:02:10;;;;;;;1.73;1.63;;;;;;;;;;6305722;22;20196;-94
2023/08/25 15:04:39;;;;;;;2.83;1.58;;;;;;;;;;6306843;22;20182;-94
2023/08/25 15:07:09;;;;;;;2.10;1.90;;;;;;;;;;6307185;22;20200;-95
2023/08/25 15:09:40;;;;;;;2.65;1.85;;;;;;;;;;6306393;22;20161;-94
2023/08/25 15:12:11;;;;;;;1.40;1.30;;;;;;;;;;6306581;22;20156;-95
2023/08/25 15:15:03;;;;;;;1.83;1.73;;;;;;;;;;6306944;22;20145;-95
2023/08/25 15:17:31;;;;;;;2.20;2.03;;;;;;;;;;6307745;22;20145;-96
2023/08/25 15:20:02;;;;;;;3.25;2.00;;;;;;;;;;6307348;22;20152;-95
2023/08/25 15:22:34;;;;;;;2.30;2.10;;;;;;;;;;6307262;22;20160;-94
2023/08/25 15:25:12;;;;;;;2.03;1.83;;;;;;;;;;6307294;22;20153;-96
2023/08/25 15:27:52;;;;;;;;;;;;;;;;;;;;;
2023/08/25 15:30:45;;;;;;;;;;;;;;;;;;;;;
2023/08/25 15:33:26;;;;;;;3.50;2.38;;;;;;;;;;6306607;22;20145;-95
2023/08/25 15:36:44;;;;;;;;;;;;;;;;;;;;;
2023/08/25 15:42:38;;;;;;;2.55;2.10;;;;;;;;;;6295089;22;20153;-94
